Del Rio International Airport Del Rio US
ICAO: KDRT
IATA: DRT
Category: Medium
Scheduled Services: No

Elevation: 1002 ft
TransAlt. 18000 ft.

Airport Communications:
APP:119.6
ASOS:118.525
CLNC DEL:120.5
DEP:119.6
SAN ANGELO RDO:122.3
CTAF/UNICOM:122.8

KDRT Zoom In..

If you have problems with the map follow the link
https://www.worldairports.se/pages/airport.php?
ICAO=KDRT

Runways:

(A) RW 13 length 6300 ft width 100 ft
ILS 111.90 / hdg 132

(B) RW 31 length 6300 ft width 100 ft
---- / hdg 312

Location; KDRT
Day. 14 / Time. 20.53 Zulu
* Altimeter: 30.21
* Temperature: 16° c. 60.8°f.
* Wind from: 310° Speed 19 kn with Gusts up to 31 kn.
Dewpoint: -06° c.
Visibility: 10 Statute Miles.
Clouds: Clear (automated report).

KDRT 142053Z AUTO 31019G31KT 10SM CLR 16/M06 A3021 RMK AO2 PK WND 31037/1956 SLP225 T01611061 56019


Wind From 310°
Speed 19 kn.

 
 
jpsmedia.com for Web Design worldairports.se 2018   terms of use